sensor_id;sensor_type;location;lat;lon;timestamp;P1;durP1;ratioP1;P2;durP2;ratioP2
14939;SDS011;11825;51.898;8.202;2023-10-13T00:01:22;24.07;;;19.13;;
14939;SDS011;11825;51.898;8.202;2023-10-13T00:06:25;24.77;;;17.97;;
14939;SDS011;11825;51.898;8.202;2023-10-13T00:11:27;29.50;;;18.77;;
14939;SDS011;11825;51.898;8.202;2023-10-13T00:16:29;19.70;;;17.13;;
14939;SDS011;11825;51.898;8.202;2023-10-13T00:21:32;22.77;;;18.20;;
14939;SDS011;11825;51.898;8.202;2023-10-13T00:31:55;25.57;;;17.37;;
14939;SDS011;11825;51.898;8.202;2023-10-13T00:36:57;20.93;;;17.13;;
14939;SDS011;11825;51.898;8.202;2023-10-13T00:42:19;21.67;;;16.20;;
14939;SDS011;11825;51.898;8.202;2023-10-13T00:47:21;21.97;;;17.23;;
14939;SDS011;11825;51.898;8.202;2023-10-13T00:52:44;21.23;;;16.33;;
14939;SDS011;11825;51.898;8.202;2023-10-13T00:57:52;18.63;;;16.80;;
14939;SDS011;11825;51.898;8.202;2023-10-13T01:08:16;17.80;;;15.40;;
14939;SDS011;11825;51.898;8.202;2023-10-13T01:13:32;23.73;;;17.77;;
14939;SDS011;11825;51.898;8.202;2023-10-13T01:19:27;18.03;;;15.93;;
14939;SDS011;11825;51.898;8.202;2023-10-13T01:24:30;17.43;;;15.57;;
14939;SDS011;11825;51.898;8.202;2023-10-13T01:29:39;20.93;;;14.83;;
14939;SDS011;11825;51.898;8.202;2023-10-13T01:34:41;18.70;;;16.47;;
14939;SDS011;11825;51.898;8.202;2023-10-13T01:39:47;16.43;;;14.13;;
14939;SDS011;11825;51.898;8.202;2023-10-13T01:44:54;18.15;;;16.30;;
14939;SDS011;11825;51.898;8.202;2023-10-13T01:50:16;18.42;;;16.27;;
14939;SDS011;11825;51.898;8.202;2023-10-13T01:56:07;18.67;;;14.13;;
14939;SDS011;11825;51.898;8.202;2023-10-13T02:01:19;15.17;;;13.43;;
14939;SDS011;11825;51.898;8.202;2023-10-13T02:06:31;20.00;;;13.83;;
14939;SDS011;11825;51.898;8.202;2023-10-13T02:11:37;20.07;;;15.33;;
14939;SDS011;11825;51.898;8.202;2023-10-13T02:16:45;16.43;;;14.40;;
14939;SDS011;11825;51.898;8.202;2023-10-13T02:22:37;15.30;;;13.37;;
14939;SDS011;11825;51.898;8.202;2023-10-13T02:28:06;19.13;;;14.50;;
14939;SDS011;11825;51.898;8.202;2023-10-13T02:33:37;18.77;;;13.47;;
14939;SDS011;11825;51.898;8.202;2023-10-13T02:38:56;16.50;;;14.07;;
14939;SDS011;11825;51.898;8.202;2023-10-13T02:44:01;16.77;;;15.10;;
14939;SDS011;11825;51.898;8.202;2023-10-13T02:49:06;15.83;;;13.60;;
14939;SDS011;11825;51.898;8.202;2023-10-13T02:54:18;15.73;;;14.03;;
14939;SDS011;11825;51.898;8.202;2023-10-13T02:59:33;16.60;;;13.77;;
14939;SDS011;11825;51.898;8.202;2023-10-13T03:05:01;16.73;;;13.57;;
14939;SDS011;11825;51.898;8.202;2023-10-13T03:10:17;14.40;;;13.00;;
14939;SDS011;11825;51.898;8.202;2023-10-13T03:15:26;16.93;;;12.97;;
14939;SDS011;11825;51.898;8.202;2023-10-13T03:20:37;17.70;;;13.13;;
14939;SDS011;11825;51.898;8.202;2023-10-13T03:25:46;16.27;;;13.60;;
14939;SDS011;11825;51.898;8.202;2023-10-13T03:31:15;19.17;;;13.67;;
14939;SDS011;11825;51.898;8.202;2023-10-13T03:36:19;17.43;;;14.17;;
14939;SDS011;11825;51.898;8.202;2023-10-13T03:41:47;21.43;;;14.53;;
14939;SDS011;11825;51.898;8.202;2023-10-13T03:46:58;21.20;;;15.30;;
14939;SDS011;11825;51.898;8.202;2023-10-13T03:52:56;16.57;;;14.77;;
14939;SDS011;11825;51.898;8.202;2023-10-13T03:58:01;16.87;;;13.97;;
14939;SDS011;11825;51.898;8.202;2023-10-13T04:03:05;17.70;;;14.60;;
14939;SDS011;11825;51.898;8.202;2023-10-13T04:08:15;19.30;;;15.30;;
14939;SDS011;11825;51.898;8.202;2023-10-13T04:13:45;15.83;;;14.23;;
14939;SDS011;11825;51.898;8.202;2023-10-13T04:19:28;16.67;;;14.83;;
14939;SDS011;11825;51.898;8.202;2023-10-13T04:24:30;18.20;;;14.30;;
14939;SDS011;11825;51.898;8.202;2023-10-13T04:29:38;16.57;;;14.03;;
14939;SDS011;11825;51.898;8.202;2023-10-13T04:34:58;15.67;;;13.93;;
14939;SDS011;11825;51.898;8.202;2023-10-13T04:40:13;18.40;;;14.53;;
14939;SDS011;11825;51.898;8.202;2023-10-13T04:45:26;16.73;;;14.63;;
14939;SDS011;11825;51.898;8.202;2023-10-13T04:56:44;16.33;;;14.53;;
14939;SDS011;11825;51.898;8.202;2023-10-13T05:02:05;18.63;;;13.97;;
14939;SDS011;11825;51.898;8.202;2023-10-13T05:07:40;14.60;;;13.07;;
14939;SDS011;11825;51.898;8.202;2023-10-13T05:13:12;15.73;;;13.43;;
14939;SDS011;11825;51.898;8.202;2023-10-13T05:18:35;16.90;;;13.13;;
14939;SDS011;11825;51.898;8.202;2023-10-13T05:23:56;16.13;;;12.87;;
14939;SDS011;11825;51.898;8.202;2023-10-13T05:29:16;14.13;;;11.53;;
14939;SDS011;11825;51.898;8.202;2023-10-13T05:34:37;14.77;;;12.27;;
14939;SDS011;11825;51.898;8.202;2023-10-13T05:39:58;10.80;;;9.67;;
14939;SDS011;11825;51.898;8.202;2023-10-13T05:45:24;11.83;;;9.80;;
14939;SDS011;11825;51.898;8.202;2023-10-13T05:50:41;9.87;;;8.83;;
14939;SDS011;11825;51.898;8.202;2023-10-13T05:56:19;12.23;;;10.10;;
14939;SDS011;11825;51.898;8.202;2023-10-13T06:01:39;9.50;;;8.60;;
14939;SDS011;11825;51.898;8.202;2023-10-13T06:07:06;11.67;;;9.30;;
14939;SDS011;11825;51.898;8.202;2023-10-13T06:12:29;11.77;;;10.10;;
14939;SDS011;11825;51.898;8.202;2023-10-13T06:17:50;12.57;;;9.53;;
14939;SDS011;11825;51.898;8.202;2023-10-13T06:23:14;11.03;;;9.70;;
14939;SDS011;11825;51.898;8.202;2023-10-13T06:28:35;11.53;;;10.37;;
14939;SDS011;11825;51.898;8.202;2023-10-13T06:33:44;12.77;;;10.37;;
14939;SDS011;11825;51.898;8.202;2023-10-13T06:38:49;13.30;;;8.77;;
14939;SDS011;11825;51.898;8.202;2023-10-13T06:44:10;16.50;;;10.07;;
14939;SDS011;11825;51.898;8.202;2023-10-13T06:49:27;12.73;;;9.33;;
14939;SDS011;11825;51.898;8.202;2023-10-13T06:54:35;11.23;;;8.90;;
14939;SDS011;11825;51.898;8.202;2023-10-13T06:59:40;9.00;;;7.90;;
14939;SDS011;11825;51.898;8.202;2023-10-13T07:04:44;9.40;;;8.40;;
14939;SDS011;11825;51.898;8.202;2023-10-13T07:09:57;10.03;;;8.03;;
14939;SDS011;11825;51.898;8.202;2023-10-13T07:15:08;10.60;;;9.20;;
14939;SDS011;11825;51.898;8.202;2023-10-13T07:20:32;15.03;;;8.43;;
14939;SDS011;11825;51.898;8.202;2023-10-13T07:25:39;9.63;;;7.70;;
14939;SDS011;11825;51.898;8.202;2023-10-13T07:30:42;8.57;;;7.60;;
14939;SDS011;11825;51.898;8.202;2023-10-13T07:36:13;10.93;;;7.93;;
14939;SDS011;11825;51.898;8.202;2023-10-13T07:41:29;10.43;;;6.60;;
14939;SDS011;11825;51.898;8.202;2023-10-13T07:46:38;8.33;;;6.30;;
14939;SDS011;11825;51.898;8.202;2023-10-13T07:52:06;14.53;;;6.67;;
14939;SDS011;11825;51.898;8.202;2023-10-13T07:57:49;7.50;;;6.57;;
14939;SDS011;11825;51.898;8.202;2023-10-13T08:03:14;6.87;;;5.53;;
14939;SDS011;11825;51.898;8.202;2023-10-13T08:08:19;7.67;;;5.27;;
14939;SDS011;11825;51.898;8.202;2023-10-13T08:13:28;7.83;;;4.63;;
14939;SDS011;11825;51.898;8.202;2023-10-13T08:18:35;8.30;;;4.80;;
14939;SDS011;11825;51.898;8.202;2023-10-13T08:23:44;6.53;;;4.40;;
14939;SDS011;11825;51.898;8.202;2023-10-13T08:29:07;7.13;;;6.07;;
14939;SDS011;11825;51.898;8.202;2023-10-13T08:34:27;6.53;;;4.80;;
14939;SDS011;11825;51.898;8.202;2023-10-13T08:39:36;7.97;;;4.83;;
14939;SDS011;11825;51.898;8.202;2023-10-13T08:45:14;7.97;;;4.73;;
14939;SDS011;11825;51.898;8.202;2023-10-13T08:50:42;6.17;;;4.53;;
14939;SDS011;11825;51.898;8.202;2023-10-13T08:56:10;5.93;;;4.33;;
14939;SDS011;11825;51.898;8.202;2023-10-13T09:01:20;5.90;;;4.80;;
14939;SDS011;11825;51.898;8.202;2023-10-13T09:07:09;9.83;;;5.00;;
14939;SDS011;11825;51.898;8.202;2023-10-13T09:17:46;6.60;;;5.63;;
14939;SDS011;11825;51.898;8.202;2023-10-13T09:23:07;6.37;;;4.80;;
14939;SDS011;11825;51.898;8.202;2023-10-13T09:28:46;8.57;;;5.03;;
14939;SDS011;11825;51.898;8.202;2023-10-13T09:34:20;12.10;;;4.97;;
14939;SDS011;11825;51.898;8.202;2023-10-13T09:39:33;10.23;;;5.13;;
14939;SDS011;11825;51.898;8.202;2023-10-13T09:44:46;13.10;;;5.67;;
14939;SDS011;11825;51.898;8.202;2023-10-13T09:50:36;13.50;;;4.93;;
14939;SDS011;11825;51.898;8.202;2023-10-13T10:01:17;9.27;;;5.07;;
14939;SDS011;11825;51.898;8.202;2023-10-13T10:06:33;7.83;;;4.93;;
14939;SDS011;11825;51.898;8.202;2023-10-13T10:11:48;9.43;;;6.20;;
14939;SDS011;11825;51.898;8.202;2023-10-13T10:17:08;10.13;;;4.97;;
14939;SDS011;11825;51.898;8.202;2023-10-13T10:22:11;10.37;;;5.10;;
14939;SDS011;11825;51.898;8.202;2023-10-13T10:27:25;13.90;;;6.57;;
14939;SDS011;11825;51.898;8.202;2023-10-13T10:32:37;7.87;;;5.30;;
14939;SDS011;11825;51.898;8.202;2023-10-13T10:37:43;15.30;;;5.80;;
14939;SDS011;11825;51.898;8.202;2023-10-13T10:42:56;9.67;;;5.60;;
14939;SDS011;11825;51.898;8.202;2023-10-13T10:48:32;10.77;;;6.70;;
14939;SDS011;11825;51.898;8.202;2023-10-13T10:53:44;8.17;;;4.90;;
14939;SDS011;11825;51.898;8.202;2023-10-13T10:59:02;11.30;;;6.00;;
14939;SDS011;11825;51.898;8.202;2023-10-13T11:04:06;9.90;;;5.23;;
14939;SDS011;11825;51.898;8.202;2023-10-13T11:09:28;13.20;;;6.17;;
14939;SDS011;11825;51.898;8.202;2023-10-13T11:14:41;6.70;;;5.07;;
14939;SDS011;11825;51.898;8.202;2023-10-13T11:19:47;11.67;;;5.17;;
14939;SDS011;11825;51.898;8.202;2023-10-13T11:24:49;10.97;;;5.83;;
14939;SDS011;11825;51.898;8.202;2023-10-13T11:30:18;7.83;;;5.90;;
14939;SDS011;11825;51.898;8.202;2023-10-13T11:35:40;10.93;;;5.97;;
14939;SDS011;11825;51.898;8.202;2023-10-13T11:41:18;11.70;;;6.80;;
14939;SDS011;11825;51.898;8.202;2023-10-13T11:46:27;14.53;;;7.13;;
14939;SDS011;11825;51.898;8.202;2023-10-13T11:51:39;9.03;;;5.07;;
14939;SDS011;11825;51.898;8.202;2023-10-13T11:57:03;16.03;;;6.67;;
14939;SDS011;11825;51.898;8.202;2023-10-13T12:02:05;11.40;;;6.17;;
14939;SDS011;11825;51.898;8.202;2023-10-13T12:07:29;12.93;;;6.30;;
14939;SDS011;11825;51.898;8.202;2023-10-13T12:12:47;16.17;;;7.83;;
14939;SDS011;11825;51.898;8.202;2023-10-13T12:17:57;10.33;;;6.90;;
14939;SDS011;11825;51.898;8.202;2023-10-13T12:23:10;14.67;;;6.13;;
14939;SDS011;11825;51.898;8.202;2023-10-13T12:28:19;10.00;;;6.23;;
14939;SDS011;11825;51.898;8.202;2023-10-13T12:33:28;9.80;;;6.30;;
14939;SDS011;11825;51.898;8.202;2023-10-13T12:39:14;12.37;;;6.70;;
14939;SDS011;11825;51.898;8.202;2023-10-13T12:44:36;10.67;;;4.97;;
14939;SDS011;11825;51.898;8.202;2023-10-13T12:49:57;9.47;;;6.73;;
14939;SDS011;11825;51.898;8.202;2023-10-13T12:55:13;13.23;;;6.07;;
14939;SDS011;11825;51.898;8.202;2023-10-13T13:00:24;16.10;;;5.97;;
14939;SDS011;11825;51.898;8.202;2023-10-13T13:05:27;10.73;;;6.00;;
14939;SDS011;11825;51.898;8.202;2023-10-13T13:10:32;13.53;;;6.10;;
14939;SDS011;11825;51.898;8.202;2023-10-13T13:15:39;15.20;;;6.00;;
14939;SDS011;11825;51.898;8.202;2023-10-13T13:20:41;9.47;;;5.90;;
14939;SDS011;11825;51.898;8.202;2023-10-13T13:26:24;11.07;;;6.03;;
14939;SDS011;11825;51.898;8.202;2023-10-13T13:31:32;12.13;;;6.07;;
14939;SDS011;11825;51.898;8.202;2023-10-13T13:36:34;10.70;;;5.87;;
14939;SDS011;11825;51.898;8.202;2023-10-13T13:41:39;9.17;;;5.57;;
14939;SDS011;11825;51.898;8.202;2023-10-13T13:46:44;9.50;;;6.23;;
14939;SDS011;11825;51.898;8.202;2023-10-13T13:51:47;17.60;;;8.07;;
14939;SDS011;11825;51.898;8.202;2023-10-13T13:56:56;11.90;;;6.80;;
14939;SDS011;11825;51.898;8.202;2023-10-13T14:01:58;10.17;;;6.50;;
14939;SDS011;11825;51.898;8.202;2023-10-13T14:07:01;14.13;;;8.27;;
14939;SDS011;11825;51.898;8.202;2023-10-13T14:37:11;18.37;;;7.67;;
14939;SDS011;11825;51.898;8.202;2023-10-13T14:42:17;13.10;;;7.72;;
14939;SDS011;11825;51.898;8.202;2023-10-13T15:00:33;10.93;;;5.23;;
14939;SDS011;11825;51.898;8.202;2023-10-13T15:06:29;12.90;;;6.53;;
14939;SDS011;11825;51.898;8.202;2023-10-13T15:11:42;12.13;;;7.30;;
14939;SDS011;11825;51.898;8.202;2023-10-13T15:23:53;14.57;;;6.73;;
14939;SDS011;11825;51.898;8.202;2023-10-13T15:35:30;11.83;;;5.60;;
14939;SDS011;11825;51.898;8.202;2023-10-13T15:47:09;17.53;;;6.23;;
14939;SDS011;11825;51.898;8.202;2023-10-13T16:51:44;12.50;;;6.37;;
14939;SDS011;11825;51.898;8.202;2023-10-13T17:03:10;10.63;;;5.33;;
14939;SDS011;11825;51.898;8.202;2023-10-13T17:19:59;15.87;;;5.90;;
14939;SDS011;11825;51.898;8.202;2023-10-13T17:25:07;15.17;;;6.63;;
14939;SDS011;11825;51.898;8.202;2023-10-13T17:35:56;12.83;;;5.57;;
14939;SDS011;11825;51.898;8.202;2023-10-13T17:54:11;9.63;;;5.93;;
14939;SDS011;11825;51.898;8.202;2023-10-13T17:59:13;10.33;;;5.57;;
14939;SDS011;11825;51.898;8.202;2023-10-13T18:15:47;10.40;;;5.20;;
14939;SDS011;11825;51.898;8.202;2023-10-13T18:27:01;8.90;;;7.20;;
14939;SDS011;11825;51.898;8.202;2023-10-13T19:04:32;8.17;;;6.27;;
14939;SDS011;11825;51.898;8.202;2023-10-13T19:15:34;9.63;;;5.73;;
14939;SDS011;11825;51.898;8.202;2023-10-13T19:21:02;10.70;;;6.23;;
14939;SDS011;11825;51.898;8.202;2023-10-13T19:38:43;8.93;;;6.27;;
14939;SDS011;11825;51.898;8.202;2023-10-13T19:45:02;11.93;;;7.23;;
14939;SDS011;11825;51.898;8.202;2023-10-13T19:56:42;11.00;;;7.10;;
14939;SDS011;11825;51.898;8.202;2023-10-13T20:02:33;14.07;;;7.00;;
14939;SDS011;11825;51.898;8.202;2023-10-13T20:25:56;8.20;;;6.20;;
14939;SDS011;11825;51.898;8.202;2023-10-13T21:06:59;11.57;;;8.20;;
14939;SDS011;11825;51.898;8.202;2023-10-13T21:25:23;15.20;;;10.67;;
14939;SDS011;11825;51.898;8.202;2023-10-13T21:30:32;16.75;;;10.35;;
14939;SDS011;11825;51.898;8.202;2023-10-13T21:35:35;13.23;;;9.40;;
14939;SDS011;11825;51.898;8.202;2023-10-13T21:40:40;11.83;;;8.47;;
14939;SDS011;11825;51.898;8.202;2023-10-13T21:57:16;12.23;;;9.60;;
14939;SDS011;11825;51.898;8.202;2023-10-13T22:02:21;14.03;;;8.00;;
14939;SDS011;11825;51.898;8.202;2023-10-13T22:13:12;19.73;;;13.07;;
14939;SDS011;11825;51.898;8.202;2023-10-13T22:18:15;12.10;;;7.70;;
14939;SDS011;11825;51.898;8.202;2023-10-13T22:23:17;11.80;;;6.73;;
14939;SDS011;11825;51.898;8.202;2023-10-13T22:28:21;13.57;;;7.67;;
14939;SDS011;11825;51.898;8.202;2023-10-13T22:39:24;10.73;;;8.77;;
14939;SDS011;11825;51.898;8.202;2023-10-13T22:44:26;10.27;;;8.17;;
14939;SDS011;11825;51.898;8.202;2023-10-13T22:49:28;13.13;;;7.93;;
14939;SDS011;11825;51.898;8.202;2023-10-13T22:54:33;11.57;;;7.87;;
14939;SDS011;11825;51.898;8.202;2023-10-13T22:59:38;12.33;;;8.13;;
14939;SDS011;11825;51.898;8.202;2023-10-13T23:04:40;12.53;;;7.63;;
14939;SDS011;11825;51.898;8.202;2023-10-13T23:09:42;13.70;;;8.70;;
14939;SDS011;11825;51.898;8.202;2023-10-13T23:14:49;10.40;;;7.67;;
14939;SDS011;11825;51.898;8.202;2023-10-13T23:19:51;12.87;;;7.97;;
14939;SDS011;11825;51.898;8.202;2023-10-13T23:24:53;17.63;;;8.40;;
14939;SDS011;11825;51.898;8.202;2023-10-13T23:29:55;15.47;;;8.97;;
14939;SDS011;11825;51.898;8.202;2023-10-13T23:34:58;13.57;;;7.97;;
14939;SDS011;11825;51.898;8.202;2023-10-13T23:39:59;12.83;;;9.07;;
14939;SDS011;11825;51.898;8.202;2023-10-13T23:45:02;11.50;;;8.20;;
14939;SDS011;11825;51.898;8.202;2023-10-13T23:50:22;11.87;;;8.70;;
14939;SDS011;11825;51.898;8.202;2023-10-13T23:55:29;12.37;;;8.27;;
